sensor_id;sensor_type;location;lat;lon;timestamp;P1;durP1;ratioP1;P2;durP2;ratioP2
35364;SDS011;21464;48.112;11.530;2023-04-06T00:02:06;9.23;;;8.20;;
35364;SDS011;21464;48.112;11.530;2023-04-06T00:04:33;9.53;;;7.63;;
35364;SDS011;21464;48.112;11.530;2023-04-06T00:06:59;9.40;;;7.73;;
35364;SDS011;21464;48.112;11.530;2023-04-06T00:09:25;9.33;;;7.27;;
35364;SDS011;21464;48.112;11.530;2023-04-06T00:11:51;8.33;;;7.40;;
35364;SDS011;21464;48.112;11.530;2023-04-06T00:14:18;8.20;;;7.00;;
35364;SDS011;21464;48.112;11.530;2023-04-06T00:16:44;7.90;;;7.20;;
35364;SDS011;21464;48.112;11.530;2023-04-06T00:19:10;7.57;;;6.87;;
35364;SDS011;21464;48.112;11.530;2023-04-06T00:21:37;7.47;;;6.63;;
35364;SDS011;21464;48.112;11.530;2023-04-06T00:24:03;7.90;;;6.63;;
35364;SDS011;21464;48.112;11.530;2023-04-06T00:26:30;7.03;;;6.33;;
35364;SDS011;21464;48.112;11.530;2023-04-06T00:28:57;6.90;;;6.30;;
35364;SDS011;21464;48.112;11.530;2023-04-06T00:31:24;7.90;;;7.10;;
35364;SDS011;21464;48.112;11.530;2023-04-06T00:33:51;6.97;;;6.27;;
35364;SDS011;21464;48.112;11.530;2023-04-06T00:36:17;7.53;;;6.83;;
35364;SDS011;21464;48.112;11.530;2023-04-06T00:38:43;8.77;;;7.90;;
35364;SDS011;21464;48.112;11.530;2023-04-06T00:41:09;9.53;;;7.80;;
35364;SDS011;21464;48.112;11.530;2023-04-06T00:43:36;8.00;;;7.20;;
35364;SDS011;21464;48.112;11.530;2023-04-06T00:46:02;8.57;;;7.40;;
35364;SDS011;21464;48.112;11.530;2023-04-06T00:48:28;10.10;;;8.17;;
35364;SDS011;21464;48.112;11.530;2023-04-06T00:50:57;7.83;;;7.10;;
35364;SDS011;21464;48.112;11.530;2023-04-06T00:53:23;7.73;;;6.83;;
35364;SDS011;21464;48.112;11.530;2023-04-06T00:55:51;9.70;;;7.50;;
35364;SDS011;21464;48.112;11.530;2023-04-06T00:58:18;8.53;;;7.30;;
35364;SDS011;21464;48.112;11.530;2023-04-06T01:00:50;8.73;;;7.10;;
35364;SDS011;21464;48.112;11.530;2023-04-06T01:03:19;9.20;;;6.87;;
35364;SDS011;21464;48.112;11.530;2023-04-06T01:05:46;8.13;;;7.30;;
35364;SDS011;21464;48.112;11.530;2023-04-06T01:08:20;7.60;;;6.87;;
35364;SDS011;21464;48.112;11.530;2023-04-06T01:10:47;8.47;;;6.83;;
35364;SDS011;21464;48.112;11.530;2023-04-06T01:13:25;7.63;;;6.30;;
35364;SDS011;21464;48.112;11.530;2023-04-06T01:15:59;9.33;;;7.57;;
35364;SDS011;21464;48.112;11.530;2023-04-06T01:18:51;8.57;;;6.30;;
35364;SDS011;21464;48.112;11.530;2023-04-06T01:21:22;7.80;;;7.10;;
35364;SDS011;21464;48.112;11.530;2023-04-06T01:24:17;8.30;;;6.83;;
35364;SDS011;21464;48.112;11.530;2023-04-06T01:27:01;7.97;;;6.43;;
35364;SDS011;21464;48.112;11.530;2023-04-06T01:29:36;7.57;;;6.63;;
35364;SDS011;21464;48.112;11.530;2023-04-06T01:32:11;9.33;;;6.93;;
35364;SDS011;21464;48.112;11.530;2023-04-06T01:34:46;7.77;;;6.33;;
35364;SDS011;21464;48.112;11.530;2023-04-06T01:37:12;10.57;;;7.03;;
35364;SDS011;21464;48.112;11.530;2023-04-06T01:39:38;9.13;;;7.07;;
35364;SDS011;21464;48.112;11.530;2023-04-06T01:42:06;8.03;;;7.23;;
35364;SDS011;21464;48.112;11.530;2023-04-06T01:44:34;8.50;;;7.20;;
35364;SDS011;21464;48.112;11.530;2023-04-06T01:47:07;9.73;;;7.73;;
35364;SDS011;21464;48.112;11.530;2023-04-06T01:49:34;8.63;;;7.40;;
35364;SDS011;21464;48.112;11.530;2023-04-06T01:52:01;10.73;;;7.43;;
35364;SDS011;21464;48.112;11.530;2023-04-06T01:54:28;8.83;;;7.43;;
35364;SDS011;21464;48.112;11.530;2023-04-06T01:56:54;7.77;;;7.00;;
35364;SDS011;21464;48.112;11.530;2023-04-06T01:59:41;7.70;;;6.90;;
35364;SDS011;21464;48.112;11.530;2023-04-06T02:02:15;7.83;;;7.13;;
35364;SDS011;21464;48.112;11.530;2023-04-06T02:04:50;8.10;;;7.23;;
35364;SDS011;21464;48.112;11.530;2023-04-06T02:07:16;9.27;;;7.40;;
35364;SDS011;21464;48.112;11.530;2023-04-06T02:09:43;8.17;;;6.97;;
35364;SDS011;21464;48.112;11.530;2023-04-06T02:12:15;8.33;;;7.20;;
35364;SDS011;21464;48.112;11.530;2023-04-06T02:14:42;7.93;;;7.00;;
35364;SDS011;21464;48.112;11.530;2023-04-06T02:17:08;8.30;;;7.50;;
35364;SDS011;21464;48.112;11.530;2023-04-06T02:19:36;8.60;;;7.70;;
35364;SDS011;21464;48.112;11.530;2023-04-06T02:22:02;10.50;;;8.67;;
35364;SDS011;21464;48.112;11.530;2023-04-06T02:24:28;9.67;;;7.73;;
35364;SDS011;21464;48.112;11.530;2023-04-06T02:26:55;10.90;;;8.77;;
35364;SDS011;21464;48.112;11.530;2023-04-06T02:29:21;10.47;;;9.37;;
35364;SDS011;21464;48.112;11.530;2023-04-06T02:31:48;9.40;;;8.33;;
35364;SDS011;21464;48.112;11.530;2023-04-06T02:34:14;10.10;;;9.00;;
35364;SDS011;21464;48.112;11.530;2023-04-06T02:36:46;9.60;;;8.27;;
35364;SDS011;21464;48.112;11.530;2023-04-06T02:39:13;9.13;;;8.23;;
35364;SDS011;21464;48.112;11.530;2023-04-06T02:41:40;11.47;;;8.47;;
35364;SDS011;21464;48.112;11.530;2023-04-06T02:44:07;8.63;;;7.83;;
35364;SDS011;21464;48.112;11.530;2023-04-06T02:46:39;8.93;;;7.90;;
35364;SDS011;21464;48.112;11.530;2023-04-06T02:49:06;8.03;;;7.33;;
35364;SDS011;21464;48.112;11.530;2023-04-06T02:51:34;8.90;;;7.70;;
35364;SDS011;21464;48.112;11.530;2023-04-06T02:54:13;9.00;;;8.10;;
35364;SDS011;21464;48.112;11.530;2023-04-06T02:56:40;8.23;;;7.43;;
35364;SDS011;21464;48.112;11.530;2023-04-06T02:59:06;8.53;;;7.37;;
35364;SDS011;21464;48.112;11.530;2023-04-06T03:01:33;8.40;;;7.50;;
35364;SDS011;21464;48.112;11.530;2023-04-06T03:04:03;8.60;;;7.50;;
35364;SDS011;21464;48.112;11.530;2023-04-06T03:06:30;9.30;;;7.80;;
35364;SDS011;21464;48.112;11.530;2023-04-06T03:09:02;9.13;;;8.23;;
35364;SDS011;21464;48.112;11.530;2023-04-06T03:11:31;9.97;;;8.47;;
35364;SDS011;21464;48.112;11.530;2023-04-06T03:13:57;9.93;;;8.37;;
35364;SDS011;21464;48.112;11.530;2023-04-06T03:16:23;11.23;;;8.13;;
35364;SDS011;21464;48.112;11.530;2023-04-06T03:18:50;9.83;;;8.33;;
35364;SDS011;21464;48.112;11.530;2023-04-06T03:21:16;8.50;;;7.67;;
35364;SDS011;21464;48.112;11.530;2023-04-06T03:23:48;9.47;;;8.57;;
35364;SDS011;21464;48.112;11.530;2023-04-06T03:26:17;10.73;;;8.43;;
35364;SDS011;21464;48.112;11.530;2023-04-06T03:28:44;10.13;;;9.07;;
35364;SDS011;21464;48.112;11.530;2023-04-06T03:31:10;8.97;;;8.17;;
35364;SDS011;21464;48.112;11.530;2023-04-06T03:33:39;10.13;;;8.07;;
35364;SDS011;21464;48.112;11.530;2023-04-06T03:36:07;12.70;;;8.63;;
35364;SDS011;21464;48.112;11.530;2023-04-06T03:38:38;9.10;;;8.20;;
35364;SDS011;21464;48.112;11.530;2023-04-06T03:41:09;9.53;;;7.53;;
35364;SDS011;21464;48.112;11.530;2023-04-06T03:43:37;8.37;;;7.33;;
35364;SDS011;21464;48.112;11.530;2023-04-06T03:46:04;11.67;;;8.43;;
35364;SDS011;21464;48.112;11.530;2023-04-06T03:48:30;11.07;;;8.50;;
35364;SDS011;21464;48.112;11.530;2023-04-06T03:51:01;10.07;;;8.03;;
35364;SDS011;21464;48.112;11.530;2023-04-06T03:53:27;9.60;;;7.77;;
35364;SDS011;21464;48.112;11.530;2023-04-06T03:55:54;10.30;;;8.10;;
35364;SDS011;21464;48.112;11.530;2023-04-06T03:58:21;8.50;;;7.37;;
35364;SDS011;21464;48.112;11.530;2023-04-06T04:00:47;9.67;;;6.93;;
35364;SDS011;21464;48.112;11.530;2023-04-06T04:03:13;10.70;;;8.27;;
35364;SDS011;21464;48.112;11.530;2023-04-06T04:05:41;10.33;;;8.87;;
35364;SDS011;21464;48.112;11.530;2023-04-06T04:08:10;11.10;;;8.63;;
35364;SDS011;21464;48.112;11.530;2023-04-06T04:10:36;9.20;;;8.00;;
35364;SDS011;21464;48.112;11.530;2023-04-06T04:13:02;9.47;;;8.50;;
35364;SDS011;21464;48.112;11.530;2023-04-06T04:15:29;9.83;;;8.83;;
35364;SDS011;21464;48.112;11.530;2023-04-06T04:17:55;9.00;;;8.10;;
35364;SDS011;21464;48.112;11.530;2023-04-06T04:20:21;9.63;;;8.53;;
35364;SDS011;21464;48.112;11.530;2023-04-06T04:22:48;9.03;;;7.73;;
35364;SDS011;21464;48.112;11.530;2023-04-06T04:25:14;9.67;;;8.67;;
35364;SDS011;21464;48.112;11.530;2023-04-06T04:27:45;9.53;;;8.60;;
35364;SDS011;21464;48.112;11.530;2023-04-06T04:30:11;11.43;;;9.30;;
35364;SDS011;21464;48.112;11.530;2023-04-06T04:32:38;10.87;;;9.17;;
35364;SDS011;21464;48.112;11.530;2023-04-06T04:35:06;11.93;;;9.03;;
35364;SDS011;21464;48.112;11.530;2023-04-06T04:37:36;11.53;;;9.03;;
35364;SDS011;21464;48.112;11.530;2023-04-06T04:40:04;11.40;;;9.63;;
35364;SDS011;21464;48.112;11.530;2023-04-06T04:42:38;12.30;;;8.73;;
35364;SDS011;21464;48.112;11.530;2023-04-06T04:45:07;11.93;;;9.13;;
35364;SDS011;21464;48.112;11.530;2023-04-06T04:47:38;12.10;;;10.10;;
35364;SDS011;21464;48.112;11.530;2023-04-06T04:50:06;12.53;;;9.27;;
35364;SDS011;21464;48.112;11.530;2023-04-06T04:52:37;16.40;;;12.07;;
35364;SDS011;21464;48.112;11.530;2023-04-06T04:55:21;13.80;;;11.10;;
35364;SDS011;21464;48.112;11.530;2023-04-06T04:57:52;12.47;;;9.83;;
35364;SDS011;21464;48.112;11.530;2023-04-06T05:00:23;12.93;;;10.10;;
35364;SDS011;21464;48.112;11.530;2023-04-06T05:02:54;12.30;;;9.80;;
35364;SDS011;21464;48.112;11.530;2023-04-06T05:05:25;12.90;;;9.50;;
35364;SDS011;21464;48.112;11.530;2023-04-06T05:07:52;15.10;;;10.90;;
35364;SDS011;21464;48.112;11.530;2023-04-06T05:10:27;10.67;;;8.93;;
35364;SDS011;21464;48.112;11.530;2023-04-06T05:12:58;12.67;;;9.87;;
35364;SDS011;21464;48.112;11.530;2023-04-06T05:15:26;11.30;;;9.27;;
35364;SDS011;21464;48.112;11.530;2023-04-06T05:17:57;10.93;;;8.93;;
35364;SDS011;21464;48.112;11.530;2023-04-06T05:20:30;10.40;;;9.00;;
35364;SDS011;21464;48.112;11.530;2023-04-06T05:22:57;12.57;;;9.57;;
35364;SDS011;21464;48.112;11.530;2023-04-06T05:25:24;11.30;;;9.00;;
35364;SDS011;21464;48.112;11.530;2023-04-06T05:27:53;12.00;;;9.40;;
35364;SDS011;21464;48.112;11.530;2023-04-06T05:30:28;11.37;;;8.83;;
35364;SDS011;21464;48.112;11.530;2023-04-06T05:32:54;10.47;;;8.53;;
35364;SDS011;21464;48.112;11.530;2023-04-06T05:35:22;10.50;;;8.97;;
35364;SDS011;21464;48.112;11.530;2023-04-06T05:37:52;10.80;;;8.90;;
35364;SDS011;21464;48.112;11.530;2023-04-06T05:40:23;12.40;;;9.03;;
35364;SDS011;21464;48.112;11.530;2023-04-06T05:42:49;9.57;;;8.57;;
35364;SDS011;21464;48.112;11.530;2023-04-06T05:45:16;10.57;;;8.23;;
35364;SDS011;21464;48.112;11.530;2023-04-06T05:47:49;10.87;;;8.57;;
35364;SDS011;21464;48.112;11.530;2023-04-06T05:50:29;14.10;;;10.77;;
35364;SDS011;21464;48.112;11.530;2023-04-06T05:52:56;9.17;;;8.23;;
35364;SDS011;21464;48.112;11.530;2023-04-06T05:55:27;10.83;;;8.47;;
35364;SDS011;21464;48.112;11.530;2023-04-06T05:58:05;10.03;;;9.03;;
35364;SDS011;21464;48.112;11.530;2023-04-06T06:00:32;12.93;;;10.20;;
35364;SDS011;21464;48.112;11.530;2023-04-06T06:03:04;12.60;;;9.10;;
35364;SDS011;21464;48.112;11.530;2023-04-06T06:05:32;15.23;;;10.20;;
35364;SDS011;21464;48.112;11.530;2023-04-06T06:08:05;10.73;;;9.63;;
35364;SDS011;21464;48.112;11.530;2023-04-06T06:10:31;13.03;;;9.87;;
35364;SDS011;21464;48.112;11.530;2023-04-06T06:12:58;11.70;;;9.37;;
35364;SDS011;21464;48.112;11.530;2023-04-06T06:15:24;12.03;;;9.60;;
35364;SDS011;21464;48.112;11.530;2023-04-06T06:17:51;10.87;;;8.97;;
35364;SDS011;21464;48.112;11.530;2023-04-06T06:20:18;14.17;;;9.73;;
35364;SDS011;21464;48.112;11.530;2023-04-06T06:22:44;12.37;;;9.97;;
35364;SDS011;21464;48.112;11.530;2023-04-06T06:25:16;14.43;;;10.40;;
35364;SDS011;21464;48.112;11.530;2023-04-06T06:27:44;11.77;;;9.90;;
35364;SDS011;21464;48.112;11.530;2023-04-06T06:30:11;17.73;;;11.67;;
35364;SDS011;21464;48.112;11.530;2023-04-06T06:32:40;19.33;;;12.57;;
35364;SDS011;21464;48.112;11.530;2023-04-06T06:35:06;11.80;;;9.30;;
35364;SDS011;21464;48.112;11.530;2023-04-06T06:37:33;15.60;;;9.27;;
35364;SDS011;21464;48.112;11.530;2023-04-06T06:40:01;10.67;;;8.47;;
35364;SDS011;21464;48.112;11.530;2023-04-06T06:42:30;10.90;;;8.97;;
35364;SDS011;21464;48.112;11.530;2023-04-06T06:45:22;10.63;;;8.90;;
35364;SDS011;21464;48.112;11.530;2023-04-06T06:47:51;10.53;;;9.27;;
35364;SDS011;21464;48.112;11.530;2023-04-06T06:50:17;11.53;;;8.53;;
35364;SDS011;21464;48.112;11.530;2023-04-06T06:52:44;12.70;;;8.47;;
35364;SDS011;21464;48.112;11.530;2023-04-06T06:55:11;10.70;;;8.23;;
35364;SDS011;21464;48.112;11.530;2023-04-06T06:57:37;10.03;;;8.23;;
35364;SDS011;21464;48.112;11.530;2023-04-06T07:00:05;10.53;;;7.90;;
35364;SDS011;21464;48.112;11.530;2023-04-06T07:02:34;11.27;;;7.70;;
35364;SDS011;21464;48.112;11.530;2023-04-06T07:05:02;9.70;;;8.70;;
35364;SDS011;21464;48.112;11.530;2023-04-06T07:07:31;10.80;;;7.87;;
35364;SDS011;21464;48.112;11.530;2023-04-06T07:09:58;11.33;;;7.60;;
35364;SDS011;21464;48.112;11.530;2023-04-06T07:12:26;9.30;;;7.70;;
35364;SDS011;21464;48.112;11.530;2023-04-06T07:14:52;8.23;;;7.23;;
35364;SDS011;21464;48.112;11.530;2023-04-06T07:17:18;8.87;;;7.97;;
35364;SDS011;21464;48.112;11.530;2023-04-06T07:19:45;9.27;;;7.00;;
35364;SDS011;21464;48.112;11.530;2023-04-06T07:22:12;9.47;;;7.10;;
35364;SDS011;21464;48.112;11.530;2023-04-06T07:24:38;10.50;;;6.97;;
35364;SDS011;21464;48.112;11.530;2023-04-06T07:27:04;11.37;;;7.33;;
35364;SDS011;21464;48.112;11.530;2023-04-06T07:29:31;9.03;;;7.60;;
35364;SDS011;21464;48.112;11.530;2023-04-06T07:31:57;9.87;;;8.03;;
35364;SDS011;21464;48.112;11.530;2023-04-06T07:34:24;10.27;;;7.80;;
35364;SDS011;21464;48.112;11.530;2023-04-06T07:36:50;8.20;;;6.77;;
35364;SDS011;21464;48.112;11.530;2023-04-06T07:39:18;9.50;;;7.87;;
35364;SDS011;21464;48.112;11.530;2023-04-06T07:41:45;10.57;;;9.00;;
35364;SDS011;21464;48.112;11.530;2023-04-06T07:44:12;9.77;;;7.97;;
35364;SDS011;21464;48.112;11.530;2023-04-06T07:46:38;8.53;;;7.63;;
35364;SDS011;21464;48.112;11.530;2023-04-06T07:49:05;9.43;;;7.40;;
35364;SDS011;21464;48.112;11.530;2023-04-06T07:51:35;9.13;;;7.60;;
35364;SDS011;21464;48.112;11.530;2023-04-06T07:54:03;10.63;;;7.47;;
35364;SDS011;21464;48.112;11.530;2023-04-06T07:56:29;9.30;;;7.70;;
35364;SDS011;21464;48.112;11.530;2023-04-06T07:58:55;10.77;;;8.00;;
35364;SDS011;21464;48.112;11.530;2023-04-06T08:01:22;8.37;;;7.50;;
35364;SDS011;21464;48.112;11.530;2023-04-06T08:03:49;9.03;;;8.10;;
35364;SDS011;21464;48.112;11.530;2023-04-06T08:06:16;11.03;;;8.40;;
35364;SDS011;21464;48.112;11.530;2023-04-06T08:08:42;9.53;;;8.47;;
35364;SDS011;21464;48.112;11.530;2023-04-06T08:11:09;8.03;;;7.23;;
35364;SDS011;21464;48.112;11.530;2023-04-06T08:13:35;9.77;;;7.90;;
35364;SDS011;21464;48.112;11.530;2023-04-06T08:16:01;8.43;;;7.63;;
35364;SDS011;21464;48.112;11.530;2023-04-06T08:18:28;9.17;;;7.93;;
35364;SDS011;21464;48.112;11.530;2023-04-06T08:20:55;9.17;;;8.17;;
35364;SDS011;21464;48.112;11.530;2023-04-06T08:23:22;10.20;;;8.20;;
35364;SDS011;21464;48.112;11.530;2023-04-06T08:25:48;9.73;;;8.07;;
35364;SDS011;21464;48.112;11.530;2023-04-06T08:28:15;9.03;;;7.80;;
35364;SDS011;21464;48.112;11.530;2023-04-06T08:30:42;9.30;;;8.10;;
35364;SDS011;21464;48.112;11.530;2023-04-06T08:33:08;11.07;;;7.87;;
35364;SDS011;21464;48.112;11.530;2023-04-06T08:35:35;9.13;;;8.23;;
35364;SDS011;21464;48.112;11.530;2023-04-06T08:38:01;13.87;;;8.20;;
35364;SDS011;21464;48.112;11.530;2023-04-06T08:40:27;9.73;;;8.10;;
35364;SDS011;21464;48.112;11.530;2023-04-06T08:42:54;10.03;;;8.10;;
35364;SDS011;21464;48.112;11.530;2023-04-06T08:45:22;10.07;;;8.30;;
35364;SDS011;21464;48.112;11.530;2023-04-06T08:47:51;9.70;;;7.97;;
35364;SDS011;21464;48.112;11.530;2023-04-06T08:50:18;8.63;;;7.83;;
35364;SDS011;21464;48.112;11.530;2023-04-06T08:52:46;9.80;;;7.57;;
35364;SDS011;21464;48.112;11.530;2023-04-06T08:55:13;9.33;;;8.33;;
35364;SDS011;21464;48.112;11.530;2023-04-06T08:57:41;9.03;;;7.90;;
35364;SDS011;21464;48.112;11.530;2023-04-06T09:00:09;13.37;;;9.50;;
35364;SDS011;21464;48.112;11.530;2023-04-06T09:02:40;9.60;;;7.93;;
35364;SDS011;21464;48.112;11.530;2023-04-06T09:05:09;9.37;;;8.33;;
35364;SDS011;21464;48.112;11.530;2023-04-06T09:07:38;16.23;;;12.17;;
35364;SDS011;21464;48.112;11.530;2023-04-06T09:10:05;10.30;;;9.20;;
35364;SDS011;21464;48.112;11.530;2023-04-06T09:12:32;9.40;;;8.40;;
35364;SDS011;21464;48.112;11.530;2023-04-06T09:14:59;9.70;;;8.70;;
35364;SDS011;21464;48.112;11.530;2023-04-06T09:17:27;12.40;;;9.97;;
35364;SDS011;21464;48.112;11.530;2023-04-06T09:19:54;10.10;;;8.50;;
35364;SDS011;21464;48.112;11.530;2023-04-06T09:22:21;10.47;;;8.50;;
35364;SDS011;21464;48.112;11.530;2023-04-06T09:24:49;9.40;;;8.43;;
35364;SDS011;21464;48.112;11.530;2023-04-06T09:27:16;9.40;;;8.30;;
35364;SDS011;21464;48.112;11.530;2023-04-06T09:29:44;9.53;;;8.33;;
35364;SDS011;21464;48.112;11.530;2023-04-06T09:32:11;9.90;;;8.90;;
35364;SDS011;21464;48.112;11.530;2023-04-06T09:34:38;9.13;;;8.13;;
35364;SDS011;21464;48.112;11.530;2023-04-06T09:39:44;13.80;;;10.07;;
35364;SDS011;21464;48.112;11.530;2023-04-06T09:42:32;10.03;;;8.53;;
35364;SDS011;21464;48.112;11.530;2023-04-06T09:44:57;8.93;;;8.03;;
35364;SDS011;21464;48.112;11.530;2023-04-06T09:47:23;9.93;;;8.77;;
35364;SDS011;21464;48.112;11.530;2023-04-06T09:49:56;8.93;;;8.03;;
35364;SDS011;21464;48.112;11.530;2023-04-06T09:52:27;15.30;;;11.30;;
35364;SDS011;21464;48.112;11.530;2023-04-06T09:55:01;9.17;;;8.00;;
35364;SDS011;21464;48.112;11.530;2023-04-06T09:57:36;10.17;;;8.10;;
35364;SDS011;21464;48.112;11.530;2023-04-06T10:00:06;9.97;;;8.53;;
35364;SDS011;21464;48.112;11.530;2023-04-06T10:05:16;10.27;;;8.27;;
35364;SDS011;21464;48.112;11.530;2023-04-06T10:07:51;9.67;;;8.63;;
35364;SDS011;21464;48.112;11.530;2023-04-06T10:10:19;10.10;;;9.03;;
35364;SDS011;21464;48.112;11.530;2023-04-06T10:12:46;11.90;;;8.57;;
35364;SDS011;21464;48.112;11.530;2023-04-06T10:15:13;8.90;;;8.03;;
35364;SDS011;21464;48.112;11.530;2023-04-06T10:17:40;8.93;;;7.83;;
35364;SDS011;21464;48.112;11.530;2023-04-06T10:20:07;8.90;;;8.03;;
35364;SDS011;21464;48.112;11.530;2023-04-06T10:22:49;8.63;;;7.87;;
35364;SDS011;21464;48.112;11.530;2023-04-06T10:25:32;11.50;;;7.63;;
35364;SDS011;21464;48.112;11.530;2023-04-06T10:28:08;9.43;;;8.53;;
35364;SDS011;21464;48.112;11.530;2023-04-06T10:30:41;9.37;;;7.70;;
35364;SDS011;21464;48.112;11.530;2023-04-06T10:33:19;10.07;;;8.18;;
35364;SDS011;21464;48.112;11.530;2023-04-06T10:35:46;10.07;;;9.07;;
35364;SDS011;21464;48.112;11.530;2023-04-06T10:38:12;9.27;;;8.27;;
35364;SDS011;21464;48.112;11.530;2023-04-06T10:40:40;9.47;;;8.47;;
35364;SDS011;21464;48.112;11.530;2023-04-06T10:43:09;10.10;;;8.97;;
35364;SDS011;21464;48.112;11.530;2023-04-06T10:45:38;10.37;;;9.47;;
35364;SDS011;21464;48.112;11.530;2023-04-06T10:48:36;9.50;;;8.63;;
35364;SDS011;21464;48.112;11.530;2023-04-06T10:51:06;10.33;;;8.90;;
35364;SDS011;21464;48.112;11.530;2023-04-06T10:53:34;10.00;;;9.00;;
35364;SDS011;21464;48.112;11.530;2023-04-06T10:56:00;9.53;;;8.60;;
35364;SDS011;21464;48.112;11.530;2023-04-06T10:58:27;10.67;;;9.57;;
35364;SDS011;21464;48.112;11.530;2023-04-06T11:00:53;9.97;;;9.03;;
35364;SDS011;21464;48.112;11.530;2023-04-06T11:03:21;10.33;;;9.23;;
35364;SDS011;21464;48.112;11.530;2023-04-06T11:05:48;10.33;;;9.33;;
35364;SDS011;21464;48.112;11.530;2023-04-06T11:08:29;11.27;;;10.07;;
35364;SDS011;21464;48.112;11.530;2023-04-06T11:11:09;10.73;;;9.07;;
35364;SDS011;21464;48.112;11.530;2023-04-06T11:16:17;8.90;;;8.10;;
35364;SDS011;21464;48.112;11.530;2023-04-06T11:19:03;10.60;;;9.18;;
35364;SDS011;21464;48.112;11.530;2023-04-06T11:24:18;10.10;;;9.17;;
35364;SDS011;21464;48.112;11.530;2023-04-06T11:26:52;9.63;;;8.63;;
35364;SDS011;21464;48.112;11.530;2023-04-06T11:29:21;10.17;;;9.00;;
35364;SDS011;21464;48.112;11.530;2023-04-06T11:31:49;9.50;;;8.60;;
35364;SDS011;21464;48.112;11.530;2023-04-06T11:34:25;10.23;;;9.23;;
35364;SDS011;21464;48.112;11.530;2023-04-06T11:36:54;10.15;;;8.85;;
35364;SDS011;21464;48.112;11.530;2023-04-06T11:39:23;10.07;;;9.07;;
35364;SDS011;21464;48.112;11.530;2023-04-06T11:41:51;9.35;;;8.45;;
35364;SDS011;21464;48.112;11.530;2023-04-06T11:44:32;10.48;;;8.80;;
35364;SDS011;21464;48.112;11.530;2023-04-06T11:47:12;9.40;;;8.40;;
35364;SDS011;21464;48.112;11.530;2023-04-06T11:49:39;8.53;;;7.73;;
35364;SDS011;21464;48.112;11.530;2023-04-06T11:52:17;9.85;;;8.45;;
35364;SDS011;21464;48.112;11.530;2023-04-06T11:54:46;8.93;;;7.93;;
35364;SDS011;21464;48.112;11.530;2023-04-06T11:57:16;8.80;;;8.00;;
35364;SDS011;21464;48.112;11.530;2023-04-06T11:59:43;10.83;;;8.33;;
35364;SDS011;21464;48.112;11.530;2023-04-06T12:02:09;9.10;;;8.20;;
35364;SDS011;21464;48.112;11.530;2023-04-06T12:04:36;9.27;;;8.43;;
35364;SDS011;21464;48.112;11.530;2023-04-06T12:07:03;9.32;;;8.48;;
35364;SDS011;21464;48.112;11.530;2023-04-06T12:09:29;8.93;;;7.90;;
35364;SDS011;21464;48.112;11.530;2023-04-06T12:11:56;9.10;;;8.20;;
35364;SDS011;21464;48.112;11.530;2023-04-06T12:14:23;8.05;;;7.07;;
35364;SDS011;21464;48.112;11.530;2023-04-06T12:16:49;7.10;;;6.50;;
35364;SDS011;21464;48.112;11.530;2023-04-06T12:19:16;6.03;;;5.53;;
35364;SDS011;21464;48.112;11.530;2023-04-06T12:21:42;8.00;;;6.18;;
35364;SDS011;21464;48.112;11.530;2023-04-06T12:24:08;6.80;;;6.10;;
35364;SDS011;21464;48.112;11.530;2023-04-06T12:26:34;7.35;;;6.57;;
35364;SDS011;21464;48.112;11.530;2023-04-06T12:29:02;7.72;;;6.85;;
35364;SDS011;21464;48.112;11.530;2023-04-06T12:31:39;7.35;;;5.40;;
35364;SDS011;21464;48.112;11.530;2023-04-06T12:34:06;9.20;;;7.43;;
35364;SDS011;21464;48.112;11.530;2023-04-06T12:36:33;7.68;;;6.97;;
35364;SDS011;21464;48.112;11.530;2023-04-06T12:38:59;8.27;;;7.47;;
35364;SDS011;21464;48.112;11.530;2023-04-06T12:41:28;9.05;;;8.15;;
35364;SDS011;21464;48.112;11.530;2023-04-06T12:43:55;8.00;;;7.20;;
35364;SDS011;21464;48.112;11.530;2023-04-06T12:46:22;7.57;;;6.78;;
35364;SDS011;21464;48.112;11.530;2023-04-06T12:48:49;6.57;;;5.97;;
35364;SDS011;21464;48.112;11.530;2023-04-06T12:51:19;6.88;;;6.15;;
35364;SDS011;21464;48.112;11.530;2023-04-06T12:53:45;7.07;;;6.38;;
35364;SDS011;21464;48.112;11.530;2023-04-06T12:56:15;6.80;;;6.30;;
35364;SDS011;21464;48.112;11.530;2023-04-06T12:58:46;6.45;;;5.95;;
35364;SDS011;21464;48.112;11.530;2023-04-06T13:01:13;6.72;;;6.13;;
35364;SDS011;21464;48.112;11.530;2023-04-06T13:03:40;7.13;;;6.50;;
35364;SDS011;21464;48.112;11.530;2023-04-06T13:06:07;7.10;;;6.45;;
35364;SDS011;21464;48.112;11.530;2023-04-06T13:08:37;7.10;;;6.50;;
35364;SDS011;21464;48.112;11.530;2023-04-06T13:11:04;7.35;;;6.65;;
35364;SDS011;21464;48.112;11.530;2023-04-06T13:13:30;7.80;;;7.20;;
35364;SDS011;21464;48.112;11.530;2023-04-06T13:16:01;7.78;;;7.03;;
35364;SDS011;21464;48.112;11.530;2023-04-06T13:18:31;7.30;;;6.63;;
35364;SDS011;21464;48.112;11.530;2023-04-06T13:20:58;6.88;;;6.30;;
35364;SDS011;21464;48.112;11.530;2023-04-06T13:23:25;6.55;;;5.95;;
35364;SDS011;21464;48.112;11.530;2023-04-06T13:25:59;6.45;;;5.82;;
35364;SDS011;21464;48.112;11.530;2023-04-06T13:28:26;7.03;;;6.32;;
35364;SDS011;21464;48.112;11.530;2023-04-06T13:30:53;7.80;;;7.10;;
35364;SDS011;21464;48.112;11.530;2023-04-06T13:33:20;7.35;;;6.75;;
35364;SDS011;21464;48.112;11.530;2023-04-06T13:35:46;7.20;;;6.60;;
35364;SDS011;21464;48.112;11.530;2023-04-06T13:38:13;7.88;;;7.20;;
35364;SDS011;21464;48.112;11.530;2023-04-06T13:40:40;7.47;;;6.88;;
35364;SDS011;21464;48.112;11.530;2023-04-06T13:43:07;6.80;;;6.10;;
35364;SDS011;21464;48.112;11.530;2023-04-06T13:45:33;8.40;;;7.80;;
35364;SDS011;21464;48.112;11.530;2023-04-06T13:48:00;7.18;;;6.57;;
35364;SDS011;21464;48.112;11.530;2023-04-06T13:50:26;9.90;;;8.95;;
35364;SDS011;21464;48.112;11.530;2023-04-06T13:52:53;8.18;;;7.43;;
35364;SDS011;21464;48.112;11.530;2023-04-06T13:55:20;6.97;;;6.38;;
35364;SDS011;21464;48.112;11.530;2023-04-06T13:57:47;6.72;;;6.13;;
35364;SDS011;21464;48.112;11.530;2023-04-06T14:00:13;6.65;;;5.90;;
35364;SDS011;21464;48.112;11.530;2023-04-06T14:02:40;6.35;;;5.75;;
35364;SDS011;21464;48.112;11.530;2023-04-06T14:05:07;6.53;;;6.00;;
35364;SDS011;21464;48.112;11.530;2023-04-06T14:07:33;6.68;;;6.03;;
35364;SDS011;21464;48.112;11.530;2023-04-06T14:10:00;6.55;;;5.95;;
35364;SDS011;21464;48.112;11.530;2023-04-06T14:12:26;6.50;;;5.90;;
35364;SDS011;21464;48.112;11.530;2023-04-06T14:14:52;7.05;;;6.35;;
35364;SDS011;21464;48.112;11.530;2023-04-06T14:17:18;8.02;;;7.22;;
35364;SDS011;21464;48.112;11.530;2023-04-06T14:19:45;5.30;;;4.80;;
35364;SDS011;21464;48.112;11.530;2023-04-06T14:22:11;6.65;;;6.05;;
35364;SDS011;21464;48.112;11.530;2023-04-06T14:24:37;6.75;;;5.93;;
35364;SDS011;21464;48.112;11.530;2023-04-06T14:27:04;6.30;;;5.80;;
35364;SDS011;21464;48.112;11.530;2023-04-06T14:29:30;5.80;;;5.18;;
35364;SDS011;21464;48.112;11.530;2023-04-06T14:31:57;6.40;;;5.80;;
35364;SDS011;21464;48.112;11.530;2023-04-06T14:34:26;6.65;;;6.10;;
35364;SDS011;21464;48.112;11.530;2023-04-06T14:36:52;6.45;;;5.53;;
35364;SDS011;21464;48.112;11.530;2023-04-06T14:39:19;7.70;;;7.10;;
35364;SDS011;21464;48.112;11.530;2023-04-06T14:41:45;9.20;;;8.30;;
35364;SDS011;21464;48.112;11.530;2023-04-06T14:44:14;6.18;;;5.65;;
35364;SDS011;21464;48.112;11.530;2023-04-06T14:46:41;6.45;;;5.85;;
35364;SDS011;21464;48.112;11.530;2023-04-06T14:49:07;6.53;;;6.03;;